createdAt,value
2018-02-25T00:00:13.852Z,46.43
2018-02-25T00:01:53.278Z,46.39
2018-02-25T00:03:31.028Z,46.33
2018-02-25T00:05:08.804Z,46.36
2018-02-25T00:06:47.128Z,46.35
2018-02-25T00:08:25.631Z,46.35
2018-02-25T00:10:03.346Z,46.35
2018-02-25T00:11:41.098Z,46.36
2018-02-25T00:13:18.920Z,46.38
2018-02-25T00:14:57.066Z,46.41
2018-02-25T00:16:36.184Z,46.42
2018-02-25T00:18:14.841Z,46.40
2018-02-25T00:19:52.718Z,46.39
2018-02-25T00:21:31.646Z,46.34
2018-02-25T00:23:09.625Z,46.34
2018-02-25T00:24:47.604Z,46.33
2018-02-25T00:26:26.293Z,46.31
2018-02-25T00:28:04.590Z,46.32
2018-02-25T00:29:42.399Z,46.33
2018-02-25T00:31:20.624Z,46.31
2018-02-25T00:32:58.352Z,46.29
2018-02-25T00:34:37.288Z,46.28
2018-02-25T00:36:15.830Z,46.29
2018-02-25T00:37:53.947Z,46.30
2018-02-25T00:39:31.900Z,46.33
2018-02-25T00:41:11.389Z,46.33
2018-02-25T00:42:49.180Z,46.40
2018-02-25T00:44:27.149Z,46.38
2018-02-25T00:46:06.235Z,46.40
2018-02-25T00:47:44.785Z,46.39
2018-02-25T00:49:23.467Z,46.38
2018-02-25T00:51:02.824Z,46.33
2018-02-25T00:52:40.721Z,46.30
2018-02-25T00:54:18.760Z,46.29
2018-02-25T00:55:56.806Z,46.33
2018-02-25T00:57:34.572Z,46.32
2018-02-25T00:59:12.643Z,46.33
2018-02-25T01:00:51.454Z,46.32
2018-02-25T01:02:30.686Z,46.37
2018-02-25T01:04:09.005Z,46.42
2018-02-25T01:05:47.744Z,46.42
2018-02-25T01:07:26.904Z,46.43
2018-02-25T01:09:05.419Z,46.43
2018-02-25T01:10:43.566Z,46.39
2018-02-25T01:12:21.468Z,46.36
2018-02-25T01:14:00.480Z,46.33
2018-02-25T01:15:39.003Z,46.32
2018-02-25T01:17:17.262Z,46.29
2018-02-25T01:18:56.252Z,46.34
2018-02-25T01:20:35.909Z,46.32
2018-02-25T01:22:13.905Z,46.29
2018-02-25T01:23:52.252Z,46.32
2018-02-25T01:25:30.355Z,46.37
2018-02-25T01:27:08.221Z,46.32
2018-02-25T01:28:46.212Z,46.30
2018-02-25T01:30:26.776Z,46.35
2018-02-25T01:32:05.036Z,46.31
2018-02-25T01:33:44.156Z,46.31
2018-02-25T01:35:25.428Z,46.34
2018-02-25T01:37:03.760Z,46.32
2018-02-25T01:38:41.953Z,46.31
2018-02-25T01:40:20.319Z,46.33
2018-02-25T01:43:38.241Z,46.24
2018-02-25T01:45:17.834Z,46.24
2018-02-25T01:46:56.716Z,46.19
2018-02-25T01:48:35.806Z,46.15
2018-02-25T01:50:14.755Z,46.14
2018-02-25T01:51:52.958Z,46.17
2018-02-25T01:53:31.187Z,46.16
2018-02-25T01:55:09.920Z,46.13
2018-02-25T01:56:48.131Z,46.10
2018-02-25T01:58:27.374Z,46.13
2018-02-25T02:00:06.351Z,46.10
2018-02-25T02:01:46.083Z,46.07
2018-02-25T02:03:24.979Z,46.07
2018-02-25T02:05:03.461Z,46.08
2018-02-25T02:06:44.955Z,46.06
2018-02-25T02:08:23.739Z,46.03
2018-02-25T02:10:02.182Z,46.02
2018-02-25T02:11:40.224Z,46.02
2018-02-25T02:13:18.556Z,46.07
2018-02-25T02:14:58.140Z,46.10
2018-02-25T02:16:36.969Z,46.12
2018-02-25T02:18:16.156Z,46.10
2018-02-25T02:19:54.842Z,46.11
2018-02-25T02:21:33.234Z,46.14
2018-02-25T02:23:11.624Z,46.19
2018-02-25T02:24:50.053Z,46.21
2018-02-25T02:26:28.676Z,46.17
2018-02-25T02:28:07.064Z,46.16
2018-02-25T02:29:46.716Z,46.15
2018-02-25T02:31:25.099Z,46.16
2018-02-25T02:33:03.332Z,46.11
2018-02-25T02:34:41.922Z,46.10
2018-02-25T02:36:21.280Z,46.09
2018-02-25T02:37:59.925Z,46.07
2018-02-25T02:39:38.119Z,46.05
2018-02-25T02:41:17.367Z,46.09
2018-02-25T02:42:56.491Z,46.07
2018-02-25T02:44:35.894Z,46.07
2018-02-25T02:46:15.190Z,46.04
2018-02-25T02:47:53.946Z,46.07
2018-02-25T02:49:32.985Z,46.04
2018-02-25T02:51:11.771Z,46.04
2018-02-25T02:52:50.205Z,46.01
2018-02-25T02:54:28.311Z,45.99
2018-02-25T02:56:06.999Z,46.04
2018-02-25T02:57:45.455Z,46.03
2018-02-25T02:59:23.807Z,45.99
2018-02-25T03:01:02.110Z,45.99
2018-02-25T03:02:41.348Z,45.99
2018-02-25T03:04:19.668Z,45.96
2018-02-25T03:05:58.143Z,45.96
2018-02-25T03:07:36.601Z,45.97
2018-02-25T03:09:14.773Z,45.97
2018-02-25T03:10:52.905Z,45.96
2018-02-25T03:12:31.941Z,45.98
2018-02-25T03:14:10.104Z,45.96
2018-02-25T03:15:48.818Z,45.96
2018-02-25T03:17:27.184Z,45.96
2018-02-25T03:19:05.513Z,46.01
2018-02-25T03:20:43.539Z,46.02
2018-02-25T03:22:21.291Z,46.03
2018-02-25T03:23:59.313Z,46.03
2018-02-25T03:25:37.143Z,46.00
2018-02-25T03:27:15.658Z,46.01
2018-02-25T03:28:53.765Z,46.06
2018-02-25T03:30:31.765Z,46.08
2018-02-25T03:32:11.048Z,46.10
2018-02-25T03:33:50.067Z,46.08
2018-02-25T03:35:27.881Z,46.06
2018-02-25T03:37:05.818Z,46.02
2018-02-25T03:38:43.814Z,45.95
2018-02-25T03:40:21.603Z,45.90
2018-02-25T03:41:59.633Z,45.92
2018-02-25T03:43:39.075Z,45.88
2018-02-25T03:45:18.530Z,45.86
2018-02-25T03:46:56.854Z,45.88
2018-02-25T03:48:35.717Z,45.91
2018-02-25T03:50:14.174Z,45.90
2018-02-25T03:51:53.398Z,45.82
2018-02-25T03:53:31.728Z,45.79
2018-02-25T03:55:09.908Z,45.82
2018-02-25T03:56:48.186Z,45.82
2018-02-25T03:58:25.973Z,45.82
2018-02-25T04:00:04.991Z,45.85
2018-02-25T04:01:43.404Z,45.86
2018-02-25T04:03:22.096Z,45.83
2018-02-25T04:04:59.947Z,45.82
2018-02-25T04:06:38.236Z,45.79
2018-02-25T04:08:15.990Z,45.76
2018-02-25T04:09:53.800Z,45.76
2018-02-25T04:11:31.574Z,45.73
2018-02-25T04:13:10.517Z,45.71
2018-02-25T04:14:48.376Z,45.73
2018-02-25T04:16:26.615Z,45.78
2018-02-25T04:18:04.706Z,45.83
2018-02-25T04:19:43.155Z,45.79
2018-02-25T04:21:20.456Z,45.79
2018-02-25T04:22:58.189Z,45.83
2018-02-25T04:24:36.406Z,45.78
2018-02-25T04:26:15.660Z,45.75
2018-02-25T04:27:54.431Z,45.74
2018-02-25T04:29:32.702Z,45.76
2018-02-25T04:31:10.412Z,45.76
2018-02-25T04:32:47.675Z,45.77
2018-02-25T04:34:25.212Z,45.77
2018-02-25T04:36:02.568Z,45.77
2018-02-25T04:37:40.807Z,45.74
2018-02-25T04:39:18.253Z,45.71
2018-02-25T04:40:55.735Z,45.70
2018-02-25T04:42:33.773Z,45.68
2018-02-25T04:44:11.093Z,45.69
2018-02-25T04:45:48.716Z,45.69
2018-02-25T04:47:26.290Z,45.67
2018-02-25T04:49:03.590Z,45.68
2018-02-25T04:50:41.468Z,45.66
2018-02-25T04:52:19.259Z,45.69
2018-02-25T04:53:57.180Z,45.71
2018-02-25T04:55:35.308Z,45.73
2018-02-25T04:57:12.628Z,45.73
2018-02-25T04:58:50.637Z,45.70
2018-02-25T05:00:30.028Z,45.71
2018-02-25T05:02:08.522Z,45.68
2018-02-25T05:03:45.904Z,45.66
2018-02-25T05:05:23.331Z,45.66
2018-02-25T05:07:01.140Z,45.69
2018-02-25T05:08:38.765Z,45.72
2018-02-25T05:10:16.644Z,45.77
2018-02-25T05:11:54.197Z,45.72
2018-02-25T05:13:33.101Z,45.72
2018-02-25T05:15:10.863Z,45.70
2018-02-25T05:16:48.663Z,45.70
2018-02-25T05:18:26.123Z,45.68
2018-02-25T05:20:04.160Z,45.70
2018-02-25T05:21:42.622Z,45.68
2018-02-25T05:23:20.242Z,45.64
2018-02-25T05:24:57.732Z,45.63
2018-02-25T05:26:35.326Z,45.64
2018-02-25T05:28:13.833Z,45.65
2018-02-25T05:29:52.066Z,45.69
2018-02-25T05:31:30.588Z,45.69
2018-02-25T05:33:08.274Z,45.77
2018-02-25T05:34:46.303Z,45.74
2018-02-25T05:36:23.574Z,45.72
2018-02-25T05:38:01.043Z,45.73
2018-02-25T05:39:39.213Z,45.69
2018-02-25T05:41:16.900Z,45.61
2018-02-25T05:42:54.320Z,45.58
2018-02-25T05:44:32.286Z,45.60
2018-02-25T05:46:09.844Z,45.62
2018-02-25T05:47:48.031Z,45.61
2018-02-25T05:49:26.631Z,45.68
2018-02-25T05:51:04.998Z,45.65
2018-02-25T05:52:43.552Z,45.58
2018-02-25T05:54:22.279Z,45.57
2018-02-25T05:56:00.174Z,45.54
2018-02-25T05:57:37.913Z,45.50
2018-02-25T05:59:15.947Z,45.52
2018-02-25T06:00:54.165Z,45.50
2018-02-25T06:02:31.792Z,45.50
2018-02-25T06:04:09.176Z,45.52
2018-02-25T06:05:46.568Z,45.53
2018-02-25T06:07:23.945Z,45.57
2018-02-25T06:09:01.969Z,45.56
2018-02-25T06:10:39.668Z,45.61
2018-02-25T06:12:17.480Z,45.65
2018-02-25T06:13:56.861Z,45.66
2018-02-25T06:15:35.098Z,45.63
2018-02-25T06:17:13.445Z,45.67
2018-02-25T06:18:51.429Z,45.65
2018-02-25T06:20:29.837Z,45.69
2018-02-25T06:22:08.216Z,45.67
2018-02-25T06:23:46.537Z,45.72
2018-02-25T06:25:24.571Z,45.77
2018-02-25T06:27:02.797Z,45.84
2018-02-25T06:28:40.567Z,45.89
2018-02-25T06:30:21.159Z,45.87
2018-02-25T06:32:01.257Z,45.80
2018-02-25T06:33:39.410Z,45.79
2018-02-25T06:35:17.823Z,45.83
2018-02-25T06:36:56.749Z,45.78
2018-02-25T06:38:36.948Z,45.81
2018-02-25T06:40:15.194Z,45.81
2018-02-25T06:41:53.480Z,45.88
2018-02-25T06:43:31.994Z,45.90
2018-02-25T06:45:10.956Z,45.93
2018-02-25T06:46:49.515Z,45.95
2018-02-25T06:48:27.643Z,45.94
2018-02-25T06:50:05.876Z,45.95
2018-02-25T06:51:44.730Z,45.96
2018-02-25T06:53:24.039Z,45.96
2018-02-25T06:55:02.620Z,45.95
2018-02-25T06:56:41.863Z,45.93
2018-02-25T06:58:21.963Z,46.01
2018-02-25T07:00:01.404Z,46.10
2018-02-25T07:01:40.796Z,46.12
2018-02-25T07:03:18.909Z,46.11
2018-02-25T07:04:57.926Z,46.17
2018-02-25T07:06:36.102Z,46.22
2018-02-25T07:08:15.204Z,46.18
2018-02-25T07:09:53.813Z,46.22
2018-02-25T07:11:33.560Z,46.15
2018-02-25T07:13:12.018Z,46.08
2018-02-25T07:14:50.103Z,46.08
2018-02-25T07:16:28.845Z,46.11
2018-02-25T07:18:07.333Z,46.09
2018-02-25T07:19:46.773Z,46.10
2018-02-25T07:21:24.770Z,46.10
2018-02-25T07:23:02.838Z,46.11
2018-02-25T07:24:41.538Z,46.07
2018-02-25T07:26:20.299Z,46.05
2018-02-25T07:27:58.993Z,46.07
2018-02-25T07:29:37.126Z,46.10
2018-02-25T07:31:15.605Z,46.14
2018-02-25T07:32:53.502Z,46.18
2018-02-25T07:34:33.552Z,46.18
2018-02-25T07:36:12.027Z,46.20
2018-02-25T07:37:49.987Z,46.21
2018-02-25T07:39:28.927Z,46.18
2018-02-25T07:41:06.874Z,46.18
2018-02-25T07:42:45.973Z,46.18
2018-02-25T07:44:23.890Z,46.16
2018-02-25T07:46:02.168Z,46.19
2018-02-25T07:47:42.451Z,46.20
2018-02-25T07:49:24.324Z,46.20
2018-02-25T07:51:02.387Z,46.17
2018-02-25T07:52:40.321Z,46.17
2018-02-25T07:54:18.277Z,46.19
2018-02-25T07:55:55.992Z,46.18
2018-02-25T07:57:35.091Z,46.14
2018-02-25T07:59:13.332Z,46.14
2018-02-25T08:00:52.606Z,46.12
2018-02-25T08:02:32.100Z,46.18
2018-02-25T08:04:10.759Z,46.24
2018-02-25T08:05:49.448Z,46.17
2018-02-25T08:07:29.176Z,46.10
2018-02-25T08:09:07.415Z,46.01
2018-02-25T08:10:45.206Z,45.99
2018-02-25T08:12:23.055Z,45.97
2018-02-25T08:14:01.317Z,45.94
2018-02-25T08:15:39.533Z,45.95
2018-02-25T08:17:18.098Z,45.95
2018-02-25T08:18:56.347Z,45.97
2018-02-25T08:20:34.787Z,45.91
2018-02-25T08:22:13.095Z,45.92
2018-02-25T08:23:51.971Z,46.00
2018-02-25T08:25:30.141Z,46.08
2018-02-25T08:27:08.581Z,46.05
2018-02-25T08:28:46.679Z,46.02
2018-02-25T08:30:26.397Z,46.04
2018-02-25T08:32:04.572Z,46.03
2018-02-25T08:33:42.554Z,46.03
2018-02-25T08:35:20.564Z,46.08
2018-02-25T08:36:59.075Z,46.12
2018-02-25T08:38:37.087Z,46.14
2018-02-25T08:40:15.765Z,46.13
2018-02-25T08:41:53.665Z,46.10
2018-02-25T08:43:32.325Z,46.06
2018-02-25T08:45:10.370Z,46.06
2018-02-25T08:46:48.511Z,46.08
2018-02-25T08:48:26.417Z,46.11
2018-02-25T08:50:04.316Z,46.13
2018-02-25T08:51:42.561Z,46.16
2018-02-25T08:53:20.697Z,46.19
2018-02-25T08:54:59.588Z,46.20
2018-02-25T08:56:37.725Z,46.21
2018-02-25T08:58:21.109Z,46.23
2018-02-25T09:00:01.087Z,46.22
2018-02-25T09:01:39.447Z,46.19
2018-02-25T09:03:17.835Z,46.21
2018-02-25T09:04:56.310Z,46.23
2018-02-25T09:06:33.993Z,46.24
2018-02-25T09:08:12.357Z,46.20
2018-02-25T09:09:51.880Z,46.14
2018-02-25T09:11:29.720Z,46.12
2018-02-25T09:13:07.401Z,46.11
2018-02-25T09:14:45.166Z,46.11
2018-02-25T09:16:25.286Z,46.12
2018-02-25T09:18:03.029Z,46.12
2018-02-25T09:19:41.148Z,46.13
2018-02-25T09:21:18.948Z,46.12
2018-02-25T09:22:58.915Z,46.14
2018-02-25T09:24:37.845Z,46.22
2018-02-25T09:26:15.651Z,46.23
2018-02-25T09:27:54.489Z,46.21
2018-02-25T09:29:33.686Z,46.25
2018-02-25T09:31:11.647Z,46.27
2018-02-25T09:32:49.939Z,46.28
2018-02-25T09:34:27.809Z,46.25
2018-02-25T09:36:06.710Z,46.28
2018-02-25T09:37:44.761Z,46.26
2018-02-25T09:39:22.528Z,46.23
2018-02-25T09:41:00.272Z,46.22
2018-02-25T09:42:38.205Z,46.20
2018-02-25T09:44:16.212Z,46.22
2018-02-25T09:45:55.513Z,46.29
2018-02-25T09:47:34.304Z,46.29
2018-02-25T09:49:12.461Z,46.31
2018-02-25T09:50:50.668Z,46.32
2018-02-25T09:52:28.281Z,46.39
2018-02-25T09:54:06.375Z,46.39
2018-02-25T09:55:44.316Z,46.34
2018-02-25T09:57:22.348Z,46.35
2018-02-25T09:59:00.158Z,46.32
2018-02-25T10:00:39.523Z,46.32
2018-02-25T10:02:17.917Z,46.34
2018-02-25T10:03:55.715Z,46.34
2018-02-25T10:05:33.887Z,46.32
2018-02-25T10:07:12.265Z,46.35
2018-02-25T10:08:50.226Z,46.37
2018-02-25T10:10:28.851Z,46.43
2018-02-25T10:12:06.428Z,46.42
2018-02-25T10:13:45.549Z,46.44
2018-02-25T10:15:25.096Z,46.45
2018-02-25T10:17:03.406Z,46.42
2018-02-25T10:18:41.207Z,46.45
2018-02-25T10:20:19.485Z,46.45
2018-02-25T10:21:57.443Z,46.49
2018-02-25T10:23:35.200Z,46.43
2018-02-25T10:25:12.811Z,46.46
2018-02-25T10:26:50.771Z,46.54
2018-02-25T10:28:28.289Z,46.60
2018-02-25T10:30:05.930Z,46.62
2018-02-25T10:31:44.230Z,46.58
2018-02-25T10:33:21.942Z,46.55
2018-02-25T10:34:59.697Z,46.50
2018-02-25T10:36:38.842Z,46.49
2018-02-25T10:38:17.020Z,46.54
2018-02-25T10:39:54.663Z,46.58
2018-02-25T10:41:33.761Z,46.66
2018-02-25T10:43:11.865Z,46.69
2018-02-25T10:44:49.846Z,46.68
2018-02-25T10:46:27.934Z,46.65
2018-02-25T10:48:06.168Z,46.59
2018-02-25T10:49:44.011Z,46.55
2018-02-25T10:51:22.087Z,46.52
2018-02-25T10:53:00.867Z,46.59
2018-02-25T10:54:38.879Z,46.67
2018-02-25T10:56:17.116Z,46.66
2018-02-25T10:57:55.207Z,46.58
2018-02-25T10:59:34.244Z,46.55
2018-02-25T11:01:12.055Z,46.63
2018-02-25T11:02:50.502Z,46.70
2018-02-25T11:04:28.209Z,46.65
2018-02-25T11:06:06.014Z,46.69
2018-02-25T11:07:43.703Z,46.76
2018-02-25T11:09:21.906Z,46.69
2018-02-25T11:10:59.670Z,46.69
2018-02-25T11:12:37.369Z,46.62
2018-02-25T11:14:15.125Z,46.59
2018-02-25T11:15:54.471Z,46.55
2018-02-25T11:17:32.123Z,46.56
2018-02-25T11:19:09.753Z,46.58
2018-02-25T11:20:48.601Z,46.66
2018-02-25T11:22:27.742Z,46.71
2018-02-25T11:24:05.280Z,46.73
2018-02-25T11:27:24.026Z,46.76
2018-02-25T11:29:10.589Z,46.69
2018-02-25T11:30:49.170Z,46.70
2018-02-25T11:32:26.810Z,46.65
2018-02-25T11:34:05.591Z,46.69
2018-02-25T11:35:43.554Z,46.75
2018-02-25T11:37:21.386Z,46.69
2018-02-25T11:38:59.912Z,46.63
2018-02-25T11:40:37.805Z,46.60
2018-02-25T11:42:15.906Z,46.60
2018-02-25T11:43:54.243Z,46.67
2018-02-25T11:45:32.319Z,46.72
2018-02-25T11:47:10.797Z,46.77
2018-02-25T11:48:48.811Z,46.74
2018-02-25T11:50:26.315Z,46.73
2018-02-25T11:52:04.638Z,46.79
2018-02-25T11:53:42.453Z,46.78
2018-02-25T11:55:20.467Z,46.77
2018-02-25T11:56:58.053Z,46.76
2018-02-25T11:58:36.654Z,46.78
2018-02-25T12:00:17.130Z,46.68
2018-02-25T12:01:55.984Z,46.68
2018-02-25T12:03:34.519Z,46.72
2018-02-25T12:05:12.148Z,46.69
2018-02-25T12:06:50.416Z,46.75
2018-02-25T12:08:28.587Z,46.77
2018-02-25T12:10:06.896Z,46.77
2018-02-25T12:11:44.587Z,46.81
2018-02-25T12:13:22.146Z,46.82
2018-02-25T12:15:00.880Z,46.78
2018-02-25T12:16:39.423Z,46.77
2018-02-25T12:18:17.367Z,46.79
2018-02-25T12:19:56.796Z,46.77
2018-02-25T12:21:34.632Z,46.66
2018-02-25T12:23:12.349Z,46.63
2018-02-25T12:24:50.967Z,46.64
2018-02-25T12:26:28.794Z,46.64
2018-02-25T12:28:07.103Z,46.68
2018-02-25T12:29:44.843Z,46.75
2018-02-25T12:31:23.114Z,46.79
2018-02-25T12:33:01.580Z,46.80
2018-02-25T12:34:39.857Z,46.79
2018-02-25T12:36:17.575Z,46.80
2018-02-25T12:37:56.125Z,46.79
2018-02-25T12:39:34.637Z,46.80
2018-02-25T12:41:12.925Z,46.73
2018-02-25T12:42:52.457Z,46.71
2018-02-25T12:44:30.230Z,46.72
2018-02-25T12:46:09.207Z,46.75
2018-02-25T12:47:47.327Z,46.74
2018-02-25T12:49:26.336Z,46.71
2018-02-25T12:51:03.976Z,46.72
2018-02-25T12:52:41.514Z,46.70
2018-02-25T12:54:20.387Z,46.73
2018-02-25T12:55:59.655Z,46.73
2018-02-25T12:57:37.414Z,46.69
2018-02-25T12:59:14.913Z,46.66
2018-02-25T13:00:53.705Z,46.60
2018-02-25T13:02:32.678Z,46.58
2018-02-25T13:04:10.402Z,46.62
2018-02-25T13:05:48.165Z,46.68
2018-02-25T13:07:26.920Z,46.68
2018-02-25T13:09:05.796Z,46.63
2018-02-25T13:10:43.858Z,46.60
2018-02-25T13:12:23.680Z,46.61
2018-02-25T13:14:02.050Z,46.59
2018-02-25T13:15:40.373Z,46.64
2018-02-25T13:17:18.088Z,46.59
2018-02-25T13:18:56.003Z,46.64
2018-02-25T13:20:33.945Z,46.70
2018-02-25T13:22:11.810Z,46.72
2018-02-25T13:23:49.718Z,46.70
2018-02-25T13:25:27.389Z,46.68
2018-02-25T13:27:05.506Z,46.68
2018-02-25T13:28:43.221Z,46.64
2018-02-25T13:30:21.454Z,46.68
2018-02-25T13:32:00.727Z,46.58
2018-02-25T13:33:39.021Z,46.60
2018-02-25T13:35:16.634Z,46.63
2018-02-25T13:36:54.368Z,46.64
2018-02-25T13:38:32.100Z,46.64
2018-02-25T13:40:10.134Z,46.62
2018-02-25T13:41:48.374Z,46.60
2018-02-25T13:43:26.807Z,46.54
2018-02-25T13:45:05.301Z,46.50
2018-02-25T13:46:44.757Z,46.52
2018-02-25T13:48:23.312Z,46.54
2018-02-25T13:50:02.868Z,46.51
2018-02-25T13:51:40.875Z,46.55
2018-02-25T13:53:20.937Z,46.57
2018-02-25T13:54:59.497Z,46.58
2018-02-25T13:56:37.856Z,46.57
2018-02-25T13:58:18.779Z,46.55
2018-02-25T13:59:57.018Z,46.50
2018-02-25T14:01:35.451Z,46.47
2018-02-25T14:03:14.528Z,46.51
2018-02-25T14:04:52.483Z,46.54
2018-02-25T14:06:30.729Z,46.51
2018-02-25T14:08:08.297Z,46.45
2018-02-25T14:09:45.956Z,46.44
2018-02-25T14:11:24.077Z,46.47
2018-02-25T14:13:02.324Z,46.49
2018-02-25T14:14:40.555Z,46.50
2018-02-25T14:16:18.781Z,46.53
2018-02-25T14:17:56.669Z,46.50
2018-02-25T14:19:34.931Z,46.52
2018-02-25T14:21:13.409Z,46.56
2018-02-25T14:22:52.501Z,46.49
2018-02-25T14:24:30.312Z,46.48
2018-02-25T14:26:09.184Z,46.48
2018-02-25T14:27:46.898Z,46.52
2018-02-25T14:29:24.552Z,46.52
2018-02-25T14:31:02.424Z,46.52
2018-02-25T14:32:40.351Z,46.53
2018-02-25T14:34:18.038Z,46.56
2018-02-25T14:35:55.782Z,46.53
2018-02-25T14:37:33.956Z,46.49
2018-02-25T14:39:12.437Z,46.49
2018-02-25T14:40:50.083Z,46.44
2018-02-25T14:42:27.751Z,46.38
2018-02-25T14:44:05.833Z,46.35
2018-02-25T14:45:45.168Z,46.37
2018-02-25T14:47:22.888Z,46.41
2018-02-25T14:49:00.288Z,46.43
2018-02-25T14:50:37.902Z,46.42
2018-02-25T14:52:16.816Z,46.42
2018-02-25T14:53:54.521Z,46.45
2018-02-25T14:55:32.078Z,46.38
2018-02-25T14:57:12.019Z,46.35
2018-02-25T14:58:50.458Z,46.32
2018-02-25T15:00:41.947Z,46.25
2018-02-25T15:02:23.093Z,46.24
2018-02-25T15:04:02.322Z,46.30
2018-02-25T15:05:40.306Z,46.27
2018-02-25T15:07:17.808Z,46.29
2018-02-25T15:08:55.961Z,46.29
2018-02-25T15:10:34.020Z,46.27
2018-02-25T15:12:11.508Z,46.22
2018-02-25T15:13:49.237Z,46.24
2018-02-25T15:15:30.075Z,46.27
2018-02-25T15:17:09.476Z,46.19
2018-02-25T15:18:47.333Z,46.18
2018-02-25T15:20:25.764Z,46.20
2018-02-25T15:22:04.274Z,46.21
2018-02-25T15:23:42.691Z,46.22
2018-02-25T15:25:20.611Z,46.20
2018-02-25T15:26:58.337Z,46.16
2018-02-25T15:28:36.298Z,46.17
2018-02-25T15:30:16.073Z,46.19
2018-02-25T15:31:54.338Z,46.21
2018-02-25T15:33:31.978Z,46.21
2018-02-25T15:35:09.541Z,46.20
2018-02-25T15:36:47.488Z,46.18
2018-02-25T15:38:25.956Z,46.18
2018-02-25T15:40:03.462Z,46.17
2018-02-25T15:41:42.609Z,46.18
2018-02-25T15:43:20.091Z,46.08
2018-02-25T15:44:57.518Z,46.02
2018-02-25T15:46:36.419Z,45.99
2018-02-25T15:48:14.698Z,45.97
2018-02-25T15:49:52.297Z,46.00
2018-02-25T15:51:31.639Z,46.07
2018-02-25T15:53:09.582Z,46.09
2018-02-25T15:54:47.551Z,46.00
2018-02-25T15:56:25.131Z,45.98
2018-02-25T15:58:02.940Z,45.98
2018-02-25T15:59:41.839Z,45.97
2018-02-25T16:01:19.981Z,45.93
2018-02-25T16:02:58.381Z,45.90
2018-02-25T16:04:36.765Z,45.88
2018-02-25T16:06:14.915Z,45.89
2018-02-25T16:07:52.814Z,45.93
2018-02-25T16:09:30.259Z,45.98
2018-02-25T16:11:07.866Z,45.98
2018-02-25T16:12:45.364Z,45.92
2018-02-25T16:14:24.168Z,45.88
2018-02-25T16:16:02.162Z,45.90
2018-02-25T16:17:39.609Z,45.90
2018-02-25T16:19:17.040Z,45.85
2018-02-25T16:20:55.318Z,45.86
2018-02-25T16:22:32.952Z,45.89
2018-02-25T16:24:10.758Z,45.89
2018-02-25T16:25:49.058Z,45.89
2018-02-25T16:27:27.883Z,45.90
2018-02-25T16:29:05.589Z,45.89
2018-02-25T16:30:43.647Z,45.88
2018-02-25T16:33:58.839Z,45.81
2018-02-25T16:35:38.133Z,45.79
2018-02-25T16:37:15.914Z,45.77
2018-02-25T16:38:53.722Z,45.71
2018-02-25T16:40:31.951Z,45.71
2018-02-25T16:42:10.464Z,45.72
2018-02-25T16:43:48.104Z,45.75
2018-02-25T16:45:28.422Z,45.76
2018-02-25T16:47:06.479Z,45.76
2018-02-25T16:48:44.061Z,45.71
2018-02-25T16:50:22.736Z,45.67
2018-02-25T16:52:00.355Z,45.68
2018-02-25T16:53:38.519Z,45.66
2018-02-25T16:55:16.837Z,45.63
2018-02-25T16:56:54.350Z,45.64
2018-02-25T16:58:31.954Z,45.62
2018-02-25T17:00:12.991Z,45.62
2018-02-25T17:01:52.735Z,45.57
2018-02-25T17:03:30.627Z,45.55
2018-02-25T17:05:11.934Z,45.54
2018-02-25T17:06:50.473Z,45.52
2018-02-25T17:08:29.168Z,45.49
2018-02-25T17:10:06.986Z,45.47
2018-02-25T17:11:45.679Z,45.52
2018-02-25T17:13:24.637Z,45.50
2018-02-25T17:15:02.848Z,45.48
2018-02-25T17:16:41.048Z,45.44
2018-02-25T17:18:18.844Z,45.45
2018-02-25T17:19:57.018Z,45.43
2018-02-25T17:21:34.824Z,45.42
2018-02-25T17:23:13.858Z,45.44
2018-02-25T17:24:51.596Z,45.45
2018-02-25T17:26:30.118Z,45.45
2018-02-25T17:28:08.631Z,45.42
2018-02-25T17:29:46.503Z,45.45
2018-02-25T17:31:25.552Z,45.38
2018-02-25T17:33:03.223Z,45.35
2018-02-25T17:34:40.725Z,45.35
2018-02-25T17:36:18.397Z,45.39
2018-02-25T17:37:56.863Z,45.45
2018-02-25T17:39:34.995Z,45.46
2018-02-25T17:41:12.663Z,45.43
2018-02-25T17:42:50.824Z,45.40
2018-02-25T17:44:29.427Z,45.37
2018-02-25T17:46:09.271Z,45.37
2018-02-25T17:47:47.620Z,45.39
2018-02-25T17:49:25.215Z,45.41
2018-02-25T17:51:02.999Z,45.36
2018-02-25T17:52:41.046Z,45.37
2018-02-25T17:56:03.973Z,45.35
2018-02-25T17:57:41.433Z,45.32
2018-02-25T17:59:19.866Z,45.32
2018-02-25T18:00:58.146Z,45.35
2018-02-25T18:02:36.115Z,45.31
2018-02-25T18:04:14.027Z,45.30
2018-02-25T18:05:53.036Z,45.30
2018-02-25T18:07:31.299Z,45.24
2018-02-25T18:09:08.876Z,45.21
2018-02-25T18:10:46.470Z,45.20
2018-02-25T18:12:24.688Z,45.20
2018-02-25T18:14:02.535Z,45.21
2018-02-25T18:15:40.779Z,45.17
2018-02-25T18:17:18.662Z,45.14
2018-02-25T18:18:57.104Z,45.15
2018-02-25T18:20:34.810Z,45.15
2018-02-25T18:22:12.459Z,45.14
2018-02-25T18:23:50.631Z,45.17
2018-02-25T18:25:28.418Z,45.21
2018-02-25T18:27:06.272Z,45.20
2018-02-25T18:28:44.005Z,45.17
2018-02-25T18:30:22.435Z,45.16
2018-02-25T18:32:02.283Z,45.16
2018-02-25T18:33:40.483Z,45.11
2018-02-25T18:35:18.535Z,45.09
2018-02-25T18:36:57.051Z,45.11
2018-02-25T18:38:34.859Z,45.08
2018-02-25T18:40:12.491Z,45.06
2018-02-25T18:41:50.138Z,45.02
2018-02-25T18:43:29.102Z,45.03
2018-02-25T18:45:06.619Z,45.03
2018-02-25T18:46:44.983Z,45.00
2018-02-25T18:48:22.727Z,45.00
2018-02-25T18:50:00.972Z,44.98
2018-02-25T18:51:39.272Z,44.97
2018-02-25T18:53:16.898Z,44.94
2018-02-25T18:54:54.429Z,44.94
2018-02-25T18:56:33.716Z,44.97
2018-02-25T18:58:12.235Z,44.93
2018-02-25T18:59:50.553Z,44.92
2018-02-25T19:01:28.670Z,44.90
2018-02-25T19:03:06.210Z,44.93
2018-02-25T19:04:44.289Z,44.94
2018-02-25T19:06:21.861Z,44.91
2018-02-25T19:07:59.346Z,44.91
2018-02-25T19:09:37.484Z,44.88
2018-02-25T19:11:15.414Z,44.84
2018-02-25T19:12:53.283Z,44.81
2018-02-25T19:14:31.063Z,44.80
2018-02-25T19:16:10.712Z,44.80
2018-02-25T19:17:48.460Z,44.77
2018-02-25T19:19:27.266Z,44.78
2018-02-25T19:21:04.846Z,44.78
2018-02-25T19:22:44.049Z,44.82
2018-02-25T19:24:21.545Z,44.80
2018-02-25T19:25:59.008Z,44.75
2018-02-25T19:27:38.117Z,44.78
2018-02-25T19:29:16.932Z,44.78
2018-02-25T19:30:54.634Z,44.81
2018-02-25T19:32:33.322Z,44.79
2018-02-25T19:34:11.043Z,44.71
2018-02-25T19:35:53.215Z,44.71
2018-02-25T19:39:36.705Z,44.69
2018-02-25T19:41:18.705Z,44.62
2018-02-25T19:42:56.408Z,44.63
2018-02-25T19:44:34.545Z,44.58
2018-02-25T19:46:12.275Z,44.56
2018-02-25T19:47:49.838Z,44.58
2018-02-25T19:49:27.644Z,44.58
2018-02-25T19:51:05.486Z,44.57
2018-02-25T19:52:44.428Z,44.58
2018-02-25T19:54:22.271Z,44.58
2018-02-25T19:56:00.132Z,44.58
2018-02-25T19:57:38.594Z,44.57
2018-02-25T19:59:17.100Z,44.56
2018-02-25T20:00:55.952Z,44.55
2018-02-25T20:02:33.527Z,44.51
2018-02-25T20:04:11.189Z,44.54
2018-02-25T20:05:49.600Z,44.57
2018-02-25T20:07:28.174Z,44.50
2018-02-25T20:09:06.826Z,44.54
2018-02-25T20:10:44.657Z,44.53
2018-02-25T20:12:22.769Z,44.51
2018-02-25T20:14:00.609Z,44.49
2018-02-25T20:15:40.638Z,44.48
2018-02-25T20:17:18.466Z,44.51
2018-02-25T20:18:57.459Z,44.51
2018-02-25T20:20:35.128Z,44.57
2018-02-25T20:22:13.782Z,44.54
2018-02-25T20:23:51.570Z,44.57
2018-02-25T20:25:30.202Z,44.51
2018-02-25T20:27:07.752Z,44.45
2018-02-25T20:28:46.147Z,44.44
2018-02-25T20:32:19.074Z,44.41
2018-02-25T20:33:57.860Z,44.39
2018-02-25T20:35:35.429Z,44.40
2018-02-25T20:37:14.280Z,44.42
2018-02-25T20:38:52.533Z,44.38
2018-02-25T20:40:30.060Z,44.36
2018-02-25T20:42:07.554Z,44.35
2018-02-25T20:43:53.491Z,44.36
2018-02-25T20:45:33.049Z,44.41
2018-02-25T20:47:10.773Z,44.40
2018-02-25T20:48:48.278Z,44.38
2018-02-25T20:50:27.061Z,44.38
2018-02-25T20:52:04.667Z,44.37
2018-02-25T20:53:42.344Z,44.36
2018-02-25T20:55:22.243Z,44.39
2018-02-25T20:56:59.879Z,44.35
2018-02-25T20:58:37.966Z,44.34
2018-02-25T21:00:16.643Z,44.30
2018-02-25T21:01:55.057Z,44.28
2018-02-25T21:03:40.039Z,44.30
2018-02-25T21:05:23.191Z,44.29
2018-02-25T21:07:04.159Z,44.26
2018-02-25T21:08:45.480Z,44.30
2018-02-25T21:10:27.389Z,44.31
2018-02-25T21:12:11.001Z,44.32
2018-02-25T21:13:50.049Z,44.34
2018-02-25T21:15:29.948Z,44.32
2018-02-25T21:17:07.439Z,44.34